createdAt,value
2023-04-25T00:01:20.165Z,99499.78
2023-04-25T00:03:48.169Z,99513.50
2023-04-25T00:06:16.307Z,99503.00
2023-04-25T00:08:43.931Z,99487.00
2023-04-25T00:11:13.036Z,99497.50
2023-04-25T00:13:42.863Z,99504.94
2023-04-25T00:16:10.777Z,99497.50
2023-04-25T00:18:38.511Z,99499.84
2023-04-25T00:21:07.325Z,99501.03
2023-04-25T00:23:36.582Z,99509.22
2023-04-25T00:26:05.045Z,99512.94
2023-04-25T00:28:34.239Z,99516.53
2023-04-25T00:31:01.927Z,99519.91
2023-04-25T00:33:29.646Z,99522.06
2023-04-25T00:35:58.123Z,99532.84
2023-04-25T00:38:25.856Z,99535.78
2023-04-25T00:40:53.974Z,99535.69
2023-04-25T00:43:21.845Z,99539.66
2023-04-25T00:45:52.833Z,99547.34
2023-04-25T00:48:22.955Z,99545.75
2023-04-25T00:50:54.351Z,99546.47
2023-04-25T00:53:22.419Z,99551.41
2023-04-25T00:55:51.753Z,99541.31
2023-04-25T00:58:19.580Z,99537.56
2023-04-25T01:00:48.175Z,99554.91
2023-04-25T01:03:18.373Z,99566.31
2023-04-25T01:05:46.201Z,99569.81
2023-04-25T01:08:15.440Z,99570.19
2023-04-25T01:10:43.274Z,99568.41
2023-04-25T01:13:11.074Z,99579.66
2023-04-25T01:15:38.768Z,99578.84
2023-04-25T01:18:07.968Z,99575.16
2023-04-25T01:20:39.302Z,99583.91
2023-04-25T01:23:08.512Z,99592.56
2023-04-25T01:25:36.475Z,99595.03
2023-04-25T01:28:04.159Z,99602.03
2023-04-25T01:30:32.061Z,99600.59
2023-04-25T01:33:01.196Z,99601.09
2023-04-25T01:35:29.322Z,99602.91
2023-04-25T01:37:56.977Z,99603.06
2023-04-25T01:40:26.681Z,99606.53
2023-04-25T01:42:54.364Z,99596.25
2023-04-25T01:45:22.560Z,99603.03
2023-04-25T01:47:51.470Z,99586.31
2023-04-25T01:50:19.646Z,99612.22
2023-04-25T01:52:47.438Z,99611.16
2023-04-25T01:55:15.153Z,99614.34
2023-04-25T01:57:44.204Z,99624.97
2023-04-25T02:00:13.214Z,99632.88
2023-04-25T02:02:41.214Z,99631.34
2023-04-25T02:05:09.675Z,99633.78
2023-04-25T02:07:37.377Z,99633.94
2023-04-25T02:10:05.745Z,99628.28
2023-04-25T02:12:33.507Z,99632.88
2023-04-25T02:15:02.512Z,99641.13
2023-04-25T02:17:30.216Z,99643.25
2023-04-25T02:19:57.880Z,99632.41
2023-04-25T02:22:25.604Z,99629.63
2023-04-25T02:24:53.199Z,99640.75
2023-04-25T02:27:20.808Z,99633.84
2023-04-25T02:29:48.448Z,99613.09
2023-04-25T02:32:17.508Z,99599.16
2023-04-25T02:34:45.543Z,99604.38
2023-04-25T02:37:13.105Z,99588.19
2023-04-25T02:39:40.815Z,99588.44
2023-04-25T02:42:08.505Z,99586.56
2023-04-25T02:44:36.148Z,99575.25
2023-04-25T02:47:03.909Z,99578.88
2023-04-25T02:49:32.930Z,99567.53
2023-04-25T02:52:00.699Z,99574.59
2023-04-25T02:54:28.480Z,99579.78
2023-04-25T02:56:56.111Z,99574.44
2023-04-25T02:59:23.776Z,99570.63
2023-04-25T03:01:51.548Z,99570.56
2023-04-25T03:04:20.279Z,99561.66
2023-04-25T03:06:49.210Z,99566.81
2023-04-25T03:09:16.920Z,99570.84
2023-04-25T03:11:45.971Z,99579.72
2023-04-25T03:14:14.092Z,99585.50
2023-04-25T03:16:42.053Z,99585.41
2023-04-25T03:19:09.756Z,99580.53
2023-04-25T03:21:38.252Z,99591.72
2023-04-25T03:24:07.665Z,99594.78
2023-04-25T03:26:35.470Z,99596.25
2023-04-25T03:29:03.346Z,99600.69
2023-04-25T03:31:31.432Z,99589.81
2023-04-25T03:33:59.157Z,99593.03
2023-04-25T03:36:26.907Z,99597.03
2023-04-25T03:38:54.603Z,99596.53
2023-04-25T03:41:23.806Z,99599.47
2023-04-25T03:43:51.670Z,99595.47
2023-04-25T03:46:19.718Z,99594.75
2023-04-25T03:48:47.568Z,99599.63
2023-04-25T03:51:15.378Z,99600.81
2023-04-25T03:53:43.057Z,99611.50
2023-04-25T03:56:10.783Z,99614.91
2023-04-25T03:58:39.880Z,99627.84
2023-04-25T04:01:08.838Z,99639.16
2023-04-25T04:03:37.677Z,99654.41
2023-04-25T04:06:06.693Z,99660.78
2023-04-25T04:08:34.275Z,99673.50
2023-04-25T04:11:02.278Z,99667.75
2023-04-25T04:13:30.819Z,99680.81
2023-04-25T04:16:00.216Z,99690.38
2023-04-25T04:18:28.011Z,99680.03
2023-04-25T04:20:55.793Z,99695.00
2023-04-25T04:23:23.772Z,99701.63
2023-04-25T04:25:51.537Z,99699.84
2023-04-25T04:28:19.383Z,99709.88
2023-04-25T04:30:47.981Z,99699.03
2023-04-25T04:33:17.112Z,99702.19
2023-04-25T04:35:44.996Z,99709.34
2023-04-25T04:38:12.822Z,99712.91
2023-04-25T04:40:40.503Z,99721.13
2023-04-25T04:43:09.818Z,99720.28
2023-04-25T04:45:37.680Z,99722.00
2023-04-25T04:48:06.517Z,99718.91
2023-04-25T04:50:36.634Z,99721.28
2023-04-25T04:53:04.348Z,99730.91
2023-04-25T04:55:32.081Z,99727.75
2023-04-25T04:57:59.974Z,99741.88
2023-04-25T05:00:29.769Z,99722.88
2023-04-25T05:02:57.890Z,99735.56
2023-04-25T05:05:25.745Z,99737.63
2023-04-25T05:07:54.794Z,99742.94
2023-04-25T05:10:22.537Z,99755.72
2023-04-25T05:12:50.265Z,99755.81
2023-04-25T05:15:18.620Z,99787.34
2023-04-25T05:17:46.344Z,99796.13
2023-04-25T05:20:15.064Z,99800.44
2023-04-25T05:22:43.857Z,99805.56
2023-04-25T05:25:12.933Z,99801.84
2023-04-25T05:27:41.000Z,99812.38
2023-04-25T05:30:09.997Z,99826.91
2023-04-25T05:32:37.728Z,99825.41
2023-04-25T05:35:07.804Z,99812.25
2023-04-25T05:37:35.737Z,99829.44
2023-04-25T05:40:07.715Z,99836.69
2023-04-25T05:42:36.834Z,99837.09
2023-04-25T05:45:05.403Z,99799.16
2023-04-25T05:47:33.146Z,99847.34
2023-04-25T05:50:00.827Z,99852.78
2023-04-25T05:52:28.597Z,99858.44
2023-04-25T05:54:56.378Z,99863.38
2023-04-25T05:57:25.278Z,99867.84
2023-04-25T05:59:54.469Z,99865.72
2023-04-25T06:02:23.433Z,99873.31
2023-04-25T06:04:52.584Z,99879.31
2023-04-25T06:07:20.931Z,99881.22
2023-04-25T06:09:48.579Z,99875.72
2023-04-25T06:12:16.266Z,99918.66
2023-04-25T06:14:43.917Z,99927.47
2023-04-25T06:17:13.048Z,99939.97
2023-04-25T06:19:40.726Z,99909.16
2023-04-25T06:22:10.114Z,99952.75
2023-04-25T06:24:37.853Z,99944.28
2023-04-25T06:27:06.125Z,99960.59
2023-04-25T06:29:33.808Z,99962.22
2023-04-25T06:32:01.467Z,99960.75
2023-04-25T06:34:31.042Z,99956.50
2023-04-25T06:36:58.680Z,99961.97
2023-04-25T06:39:26.844Z,99959.22
2023-04-25T06:41:54.584Z,99962.63
2023-04-25T06:44:24.145Z,99976.31
2023-04-25T06:46:51.933Z,99971.72
2023-04-25T06:49:19.770Z,99970.50
2023-04-25T06:51:48.918Z,99948.53
2023-04-25T06:54:16.622Z,99951.84
2023-04-25T06:56:44.373Z,99951.47
2023-04-25T06:59:11.997Z,99955.31
2023-04-25T07:01:39.796Z,99950.56
2023-04-25T07:04:07.871Z,99953.63
2023-04-25T07:06:39.017Z,99962.19
2023-04-25T07:09:08.419Z,99974.03
2023-04-25T07:11:36.194Z,99984.25
2023-04-25T07:14:04.233Z,100003.22
2023-04-25T07:16:32.182Z,99998.59
2023-04-25T07:19:00.516Z,100025.97
2023-04-25T07:21:28.226Z,100054.59
2023-04-25T07:23:56.019Z,100092.78
2023-04-25T07:26:25.155Z,100120.69
2023-04-25T07:28:52.958Z,100142.16
2023-04-25T07:31:20.769Z,100106.28
2023-04-25T07:33:48.488Z,100150.44
2023-04-25T07:36:17.155Z,100153.34
2023-04-25T07:38:44.853Z,100158.47
2023-04-25T07:41:12.671Z,100173.16
2023-04-25T07:43:41.701Z,100182.41
2023-04-25T07:46:09.578Z,100207.91
2023-04-25T07:48:37.346Z,100191.41
2023-04-25T07:51:06.114Z,100208.06
2023-04-25T07:53:35.725Z,100243.97
2023-04-25T07:56:03.532Z,100298.75
2023-04-25T07:58:31.404Z,100350.59
2023-04-25T08:01:00.485Z,100414.06
2023-04-25T08:03:28.610Z,100398.78
2023-04-25T08:05:56.674Z,100380.13
2023-04-25T08:08:24.463Z,100387.47
2023-04-25T08:10:52.243Z,100401.94
2023-04-25T08:13:19.959Z,100391.41
2023-04-25T08:15:47.906Z,100375.97
2023-04-25T08:18:17.917Z,100350.25
2023-04-25T08:20:46.090Z,100348.84
2023-04-25T08:23:14.282Z,100344.56
2023-04-25T08:25:41.981Z,100332.97
2023-04-25T08:28:09.680Z,100345.47
2023-04-25T08:30:39.317Z,100319.34
2023-04-25T08:33:07.278Z,100316.31
2023-04-25T08:35:36.693Z,100375.88
2023-04-25T08:38:04.570Z,100418.81
2023-04-25T08:40:37.333Z,100485.91
2023-04-25T08:43:06.728Z,100566.13
2023-04-25T08:45:35.399Z,100632.53
2023-04-25T08:48:03.422Z,100614.75
2023-04-25T08:50:31.804Z,100610.03
2023-04-25T08:53:06.092Z,100629.09
2023-04-25T08:55:33.969Z,100707.97
2023-04-25T08:58:02.774Z,100757.75
2023-04-25T09:00:31.269Z,100918.78
2023-04-25T09:03:00.758Z,101126.78
2023-04-25T09:05:30.318Z,101139.94
2023-04-25T09:07:59.128Z,101129.50
2023-04-25T09:10:28.262Z,101140.34
2023-04-25T09:13:07.478Z,101113.34
2023-04-25T09:15:35.482Z,101093.72
2023-04-25T09:18:03.281Z,101107.16
2023-04-25T09:20:31.815Z,101061.53
2023-04-25T09:23:06.736Z,101006.50
2023-04-25T09:25:40.756Z,100917.41
2023-04-25T09:28:08.893Z,100854.25
2023-04-25T09:30:38.546Z,100806.72
2023-04-25T09:33:08.015Z,100729.78
2023-04-25T09:35:40.126Z,100702.03
2023-04-25T09:38:12.682Z,100705.88
2023-04-25T09:40:46.408Z,100720.63
2023-04-25T09:43:22.393Z,100691.16
2023-04-25T09:45:52.622Z,100703.56
2023-04-25T09:48:21.694Z,100789.59
2023-04-25T09:51:06.483Z,100836.38
2023-04-25T09:53:34.823Z,100806.00
2023-04-25T09:56:07.506Z,100866.59
2023-04-25T09:58:36.176Z,100932.16
2023-04-25T10:01:04.924Z,100966.50
2023-04-25T10:03:33.961Z,100926.44
2023-04-25T10:06:03.460Z,100918.03
2023-04-25T10:08:34.174Z,100985.16
2023-04-25T10:11:05.642Z,101001.91
2023-04-25T10:13:34.770Z,101085.31
2023-04-25T10:16:04.065Z,101261.94
2023-04-25T10:18:33.253Z,101231.88
2023-04-25T10:21:02.874Z,101159.31
2023-04-25T10:23:32.577Z,101206.88
2023-04-25T10:26:01.105Z,101196.53
2023-04-25T10:28:30.518Z,101204.09
2023-04-25T10:31:02.027Z,101278.06
2023-04-25T10:33:35.660Z,101306.44
2023-04-25T10:36:12.282Z,101315.34
2023-04-25T10:38:40.109Z,101412.88
2023-04-25T10:41:10.347Z,101312.03
2023-04-25T10:43:41.401Z,101265.00
2023-04-25T10:46:17.719Z,101155.75
2023-04-25T10:48:50.231Z,101123.03
2023-04-25T10:51:20.252Z,101168.38
2023-04-25T10:53:48.634Z,101202.06
2023-04-25T10:56:20.055Z,101183.94
2023-04-25T10:58:51.394Z,101139.59
2023-04-25T11:01:22.607Z,101114.50
2023-04-25T11:03:51.646Z,101088.56
2023-04-25T11:06:25.631Z,101073.09
2023-04-25T11:08:53.591Z,100992.53
2023-04-25T11:11:22.118Z,100999.88
2023-04-25T11:13:51.649Z,100945.50
2023-04-25T11:16:27.494Z,100925.00
2023-04-25T11:18:59.435Z,101023.44
2023-04-25T11:21:28.640Z,101046.22
2023-04-25T11:23:56.674Z,101079.66
2023-04-25T11:26:24.430Z,101197.50
2023-04-25T11:28:53.482Z,101300.97
2023-04-25T11:31:23.517Z,101349.84
2023-04-25T11:33:52.770Z,101386.53
2023-04-25T11:36:20.978Z,101378.97
2023-04-25T11:38:48.789Z,101376.56
2023-04-25T11:41:16.528Z,101345.91
2023-04-25T11:43:46.291Z,101303.63
2023-04-25T11:46:15.556Z,101168.91
2023-04-25T11:48:44.137Z,101022.53
2023-04-25T11:51:11.955Z,101135.97
2023-04-25T11:53:43.242Z,101002.03
2023-04-25T11:56:13.125Z,100952.78
2023-04-25T11:58:56.702Z,100979.97
2023-04-25T12:01:32.284Z,101080.19
2023-04-25T12:04:13.749Z,100973.81
2023-04-25T12:06:42.911Z,100968.81
2023-04-25T12:09:12.054Z,100996.31
2023-04-25T12:11:43.894Z,100974.69
2023-04-25T12:14:11.723Z,101092.13
2023-04-25T12:16:45.499Z,101020.06
2023-04-25T12:19:16.257Z,101064.53
2023-04-25T12:24:20.265Z,101078.16
2023-04-25T12:26:52.775Z,101134.69
2023-04-25T12:29:22.302Z,101227.78
2023-04-25T12:31:52.840Z,101288.97
2023-04-25T12:34:20.963Z,101322.19
2023-04-25T12:36:48.865Z,101503.75
2023-04-25T12:39:18.001Z,101446.50
2023-04-25T12:41:46.588Z,101445.69
2023-04-25T12:44:14.725Z,101510.38
2023-04-25T12:46:42.942Z,101505.09
2023-04-25T12:51:45.071Z,101468.66
2023-04-25T12:54:12.965Z,101465.16
2023-04-25T12:56:40.837Z,101431.03
2023-04-25T12:59:08.693Z,101429.53
2023-04-25T13:01:36.657Z,101416.50
2023-04-25T13:04:05.073Z,101445.19
2023-04-25T13:06:34.322Z,101466.59
2023-04-25T13:09:02.038Z,101523.81
2023-04-25T13:13:58.364Z,101568.16
2023-04-25T13:16:26.389Z,101554.66
2023-04-25T13:18:54.010Z,101544.53
2023-04-25T13:21:21.740Z,101577.44
2023-04-25T13:23:51.244Z,101544.00
2023-04-25T13:26:19.383Z,101597.66
2023-04-25T13:28:46.998Z,101589.34
2023-04-25T13:31:14.645Z,101553.81
2023-04-25T13:33:42.370Z,101554.50
2023-04-25T13:36:10.272Z,101597.38
2023-04-25T13:38:37.960Z,101591.84
2023-04-25T13:41:08.275Z,101604.88
2023-04-25T13:43:36.013Z,101591.09
2023-04-25T13:46:03.769Z,101595.34
2023-04-25T13:48:31.511Z,101604.19
2023-04-25T13:50:59.213Z,101593.16
2023-04-25T13:53:27.227Z,101617.53
2023-04-25T13:55:54.981Z,101621.34
2023-04-25T13:58:24.038Z,101621.44
2023-04-25T14:00:51.756Z,101619.47
2023-04-25T14:03:19.441Z,101612.47
2023-04-25T14:05:47.227Z,101609.41
2023-04-25T14:08:14.803Z,101615.97
2023-04-25T14:10:42.560Z,101620.50
2023-04-25T14:13:10.981Z,101625.31
2023-04-25T14:15:40.105Z,101632.03
2023-04-25T14:18:08.214Z,101627.19
2023-04-25T14:20:36.657Z,101627.88
2023-04-25T14:23:04.413Z,101620.59
2023-04-25T14:25:32.092Z,101629.59
2023-04-25T14:27:59.834Z,101626.16
2023-04-25T14:30:27.539Z,101629.81
2023-04-25T14:32:56.783Z,101623.13
2023-04-25T14:35:24.514Z,101631.25
2023-04-25T14:37:52.243Z,101642.09
2023-04-25T14:40:23.236Z,101634.88
2023-04-25T14:42:51.029Z,101633.94
2023-04-25T14:45:18.855Z,101637.72
2023-04-25T14:47:46.947Z,101647.41
2023-04-25T14:50:16.099Z,101636.94
2023-04-25T14:52:43.921Z,101646.91
2023-04-25T14:55:11.596Z,101642.72
2023-04-25T14:57:40.264Z,101654.00
2023-04-25T15:00:10.314Z,101648.47
2023-04-25T15:02:38.886Z,101649.84
2023-04-25T15:05:07.823Z,101629.56
2023-04-25T15:07:36.955Z,101625.78
2023-04-25T15:10:06.547Z,101615.75
2023-04-25T15:12:34.212Z,101599.38
2023-04-25T15:15:02.647Z,101616.97
2023-04-25T15:17:31.935Z,101585.66
2023-04-25T15:19:59.704Z,101562.28
2023-04-25T15:22:27.477Z,101597.19
2023-04-25T15:24:57.190Z,101596.88
2023-04-25T15:27:25.098Z,101623.53
2023-04-25T15:29:53.915Z,101603.38
2023-04-25T15:32:21.994Z,101590.22
2023-04-25T15:34:50.893Z,101617.50
2023-04-25T15:37:19.242Z,101547.06
2023-04-25T15:39:46.951Z,101546.22
2023-04-25T15:42:15.969Z,101585.91
2023-04-25T15:44:43.580Z,101606.69
2023-04-25T15:47:11.379Z,101569.56
2023-04-25T15:49:39.073Z,101603.28
2023-04-25T15:52:07.091Z,101584.97
2023-04-25T15:54:34.857Z,101548.06
2023-04-25T15:57:02.679Z,101534.22
2023-04-25T15:59:31.744Z,101551.84
2023-04-25T16:01:59.537Z,101533.84
2023-04-25T16:04:30.904Z,101555.44
2023-04-25T16:06:58.787Z,101540.47
2023-04-25T16:09:26.450Z,101571.66
2023-04-25T16:11:54.333Z,101564.84
2023-04-25T16:14:22.121Z,101596.63
2023-04-25T16:16:51.403Z,101584.88
2023-04-25T16:19:19.191Z,101591.84
2023-04-25T16:21:47.179Z,101558.22
2023-04-25T16:24:14.943Z,101569.56
2023-04-25T16:26:42.706Z,101561.69
2023-04-25T16:29:10.696Z,101560.06
2023-04-25T16:31:39.340Z,101551.06
2023-04-25T16:34:08.772Z,101534.06
2023-04-25T16:36:36.803Z,101513.22
2023-04-25T16:39:04.907Z,101538.09
2023-04-25T16:41:32.644Z,101545.94
2023-04-25T16:44:00.324Z,101520.81
2023-04-25T16:46:28.087Z,101523.91
2023-04-25T16:48:56.240Z,101445.56
2023-04-25T16:51:26.239Z,101422.25
2023-04-25T16:53:54.421Z,101453.22
2023-04-25T16:56:22.947Z,101476.44
2023-04-25T16:58:51.332Z,101511.66
2023-04-25T17:01:20.639Z,101477.81
2023-04-25T17:03:49.124Z,101496.34
2023-04-25T17:06:17.479Z,101494.16
2023-04-25T17:08:46.622Z,101454.47
2023-04-25T17:11:14.385Z,101461.00
2023-04-25T17:13:43.401Z,101462.50
2023-04-25T17:16:12.002Z,101466.78
2023-04-25T17:18:39.692Z,101457.94
2023-04-25T17:21:07.994Z,101431.84
2023-04-25T17:23:35.930Z,101431.84
2023-04-25T17:26:04.953Z,101434.28
2023-04-25T17:28:32.588Z,101442.94
2023-04-25T17:31:00.258Z,101450.41
2023-04-25T17:33:28.635Z,101437.38
2023-04-25T17:35:56.742Z,101406.88
2023-04-25T17:38:24.392Z,101406.41
2023-04-25T17:40:52.083Z,101399.50
2023-04-25T17:43:21.141Z,101399.19
2023-04-25T17:45:48.818Z,101404.09
2023-04-25T17:48:16.497Z,101394.75
2023-04-25T17:50:44.265Z,101343.53
2023-04-25T17:53:11.872Z,101345.31
2023-04-25T17:55:40.341Z,101361.50
2023-04-25T17:58:08.050Z,101340.28
2023-04-25T18:00:37.084Z,101353.81
2023-04-25T18:03:04.905Z,101345.09
2023-04-25T18:05:32.942Z,101335.50
2023-04-25T18:08:00.990Z,101323.44
2023-04-25T18:10:28.923Z,101322.63
2023-04-25T18:12:56.866Z,101354.50
2023-04-25T18:15:25.042Z,101347.41
2023-04-25T18:17:54.214Z,101300.75
2023-04-25T18:20:22.195Z,101265.47
2023-04-25T18:22:51.049Z,101214.19
2023-04-25T18:25:18.755Z,101169.75
2023-04-25T18:27:46.719Z,101151.47
2023-04-25T18:30:15.079Z,101140.75
2023-04-25T18:32:43.260Z,101092.81
2023-04-25T18:35:12.550Z,101127.47
2023-04-25T18:37:42.068Z,101117.38
2023-04-25T18:40:13.718Z,101106.47
2023-04-25T18:42:41.559Z,101105.63
2023-04-25T18:45:10.325Z,101097.78
2023-04-25T18:47:37.957Z,101095.78
2023-04-25T18:50:06.755Z,101057.16
2023-04-25T18:52:35.648Z,101089.84
2023-04-25T18:55:03.647Z,101073.22
2023-04-25T18:57:31.251Z,101072.56
2023-04-25T18:59:59.011Z,101062.81
2023-04-25T19:02:26.774Z,101060.16
2023-04-25T19:04:54.670Z,101066.41
2023-04-25T19:07:22.846Z,101056.81
2023-04-25T19:09:51.895Z,101056.97
2023-04-25T19:12:19.693Z,101046.69
2023-04-25T19:14:47.433Z,101038.84
2023-04-25T19:17:15.233Z,101020.25
2023-04-25T19:19:42.914Z,101022.84
2023-04-25T19:22:11.646Z,101002.00
2023-04-25T19:24:39.861Z,100986.00
2023-04-25T19:27:09.044Z,100993.78
2023-04-25T19:29:37.148Z,100993.88
2023-04-25T19:32:05.295Z,100977.66
2023-04-25T19:34:32.936Z,100979.09
2023-04-25T19:37:00.757Z,100945.22
2023-04-25T19:39:28.384Z,100962.75
2023-04-25T19:41:56.792Z,100953.38
2023-04-25T19:44:26.384Z,100943.63
2023-04-25T19:46:54.035Z,100956.25
2023-04-25T19:49:22.172Z,100930.22
2023-04-25T19:51:49.898Z,100935.78
2023-04-25T19:54:17.698Z,100915.03
2023-04-25T19:56:45.796Z,100909.84
2023-04-25T19:59:13.536Z,100902.75
2023-04-25T20:01:42.662Z,100892.19
2023-04-25T20:04:10.610Z,100889.81
2023-04-25T20:06:38.470Z,100857.44
2023-04-25T20:09:06.449Z,100858.03
2023-04-25T20:11:34.183Z,100831.44
2023-04-25T20:14:01.998Z,100841.75
2023-04-25T20:16:29.695Z,100836.41
2023-04-25T20:18:58.735Z,100815.09
2023-04-25T20:21:27.494Z,100822.34
2023-04-25T20:23:54.951Z,100800.47
2023-04-25T20:26:23.033Z,100785.34
2023-04-25T20:28:51.452Z,100782.16
2023-04-25T20:31:19.591Z,100788.97
2023-04-25T20:33:47.448Z,100784.03
2023-04-25T20:36:16.690Z,100790.53
2023-04-25T20:38:44.426Z,100791.16
2023-04-25T20:41:12.336Z,100797.75
2023-04-25T20:43:40.361Z,100801.47
2023-04-25T20:46:08.151Z,100789.72
2023-04-25T20:48:35.942Z,100798.13
2023-04-25T20:51:04.038Z,100802.66
2023-04-25T20:53:33.126Z,100796.53
2023-04-25T20:56:00.827Z,100796.72
2023-04-25T20:58:28.682Z,100785.44
2023-04-25T21:00:56.979Z,100791.19
2023-04-25T21:03:25.998Z,100766.66
2023-04-25T21:05:53.751Z,100752.09
2023-04-25T21:08:21.417Z,100755.03
2023-04-25T21:10:50.621Z,100754.69
2023-04-25T21:13:18.449Z,100753.47
2023-04-25T21:15:46.102Z,100752.22
2023-04-25T21:18:13.813Z,100737.34
2023-04-25T21:20:42.269Z,100727.53
2023-04-25T21:23:10.044Z,100740.00
2023-04-25T21:25:37.782Z,100730.41
2023-04-25T21:28:07.876Z,100737.50
2023-04-25T21:30:35.882Z,100709.66
2023-04-25T21:33:04.324Z,100734.56
2023-04-25T21:35:32.102Z,100728.38
2023-04-25T21:37:59.822Z,100738.53
2023-04-25T21:40:27.513Z,100738.38
2023-04-25T21:42:55.283Z,100732.41
2023-04-25T21:45:24.511Z,100726.16
2023-04-25T21:47:52.233Z,100732.47
2023-04-25T21:50:20.040Z,100741.69
2023-04-25T21:52:48.384Z,100728.59
2023-04-25T21:55:16.554Z,100726.34
2023-04-25T21:57:44.452Z,100722.13
2023-04-25T22:00:24.376Z,100678.56
2023-04-25T22:02:55.217Z,100712.53
2023-04-25T22:05:26.319Z,100711.50
2023-04-25T22:07:56.964Z,100723.03
2023-04-25T22:10:26.112Z,100726.84
2023-04-25T22:12:53.977Z,100696.06
2023-04-25T22:15:23.848Z,100737.38
2023-04-25T22:17:55.135Z,100736.16
2023-04-25T22:20:26.620Z,100742.97
2023-04-25T22:22:55.663Z,100743.25
2023-04-25T22:25:23.796Z,100746.13
2023-04-25T22:27:51.805Z,100741.94
2023-04-25T22:30:19.716Z,100740.31
2023-04-25T22:32:47.679Z,100735.56
2023-04-25T22:35:16.757Z,100713.66
2023-04-25T22:37:44.824Z,100722.34
2023-04-25T22:40:13.722Z,100732.38
2023-04-25T22:42:42.219Z,100734.00
2023-04-25T22:45:11.212Z,100738.09
2023-04-25T22:47:39.704Z,100738.09
2023-04-25T22:50:13.023Z,100746.44
2023-04-25T22:52:42.980Z,100720.56
2023-04-25T22:55:12.461Z,100714.94
2023-04-25T22:57:41.359Z,100701.88
2023-04-25T23:00:16.011Z,100707.22
2023-04-25T23:02:45.733Z,100690.94
2023-04-25T23:05:14.293Z,100700.88
2023-04-25T23:07:44.586Z,100701.41
2023-04-25T23:10:13.069Z,100700.78
2023-04-25T23:12:41.093Z,100696.97
2023-04-25T23:15:10.093Z,100709.25
2023-04-25T23:17:38.141Z,100700.50
2023-04-25T23:20:10.870Z,100698.31
2023-04-25T23:22:39.181Z,100693.47
2023-04-25T23:25:10.109Z,100698.50
2023-04-25T23:27:38.102Z,100696.22
2023-04-25T23:30:07.397Z,100693.03
2023-04-25T23:32:35.469Z,100693.72
2023-04-25T23:35:04.792Z,100694.59
2023-04-25T23:37:34.301Z,100705.09
2023-04-25T23:40:02.048Z,100704.94
2023-04-25T23:42:31.552Z,100707.84
2023-04-25T23:44:59.298Z,100708.72
2023-04-25T23:47:27.112Z,100711.09
2023-04-25T23:49:55.162Z,100706.63
2023-04-25T23:52:23.490Z,100719.72
2023-04-25T23:54:51.393Z,100697.38
2023-04-25T23:57:19.177Z,100723.31
2023-04-25T23:59:48.268Z,100717.91
